createdAt,value
2023-04-10T00:00:02.074Z,6.79
2023-04-10T00:02:31.541Z,6.73
2023-04-10T00:05:02.155Z,6.80
2023-04-10T00:07:29.037Z,6.82
2023-04-10T00:09:55.698Z,6.82
2023-04-10T00:12:22.307Z,6.74
2023-04-10T00:14:48.873Z,6.72
2023-04-10T00:17:15.414Z,6.66
2023-04-10T00:19:41.959Z,6.76
2023-04-10T00:22:08.524Z,6.72
2023-04-10T00:24:35.338Z,6.74
2023-04-10T00:27:02.098Z,6.66
2023-04-10T00:29:28.947Z,6.67
2023-04-10T00:31:55.790Z,6.72
2023-04-10T00:34:22.400Z,6.72
2023-04-10T00:36:48.977Z,6.69
2023-04-10T00:39:15.543Z,6.62
2023-04-10T00:41:42.977Z,6.61
2023-04-10T00:44:09.561Z,6.58
2023-04-10T00:46:38.284Z,6.56
2023-04-10T00:49:06.216Z,6.65
2023-04-10T00:51:33.314Z,6.62
2023-04-10T00:54:01.326Z,6.55
2023-04-10T00:56:28.649Z,6.61
2023-04-10T00:58:55.221Z,6.62
2023-04-10T01:01:21.836Z,6.63
2023-04-10T01:03:48.787Z,6.55
2023-04-10T01:06:21.266Z,6.59
2023-04-10T01:08:50.874Z,6.62
2023-04-10T01:11:24.469Z,6.56
2023-04-10T01:14:27.843Z,6.55
2023-04-10T01:17:01.602Z,6.44
2023-04-10T01:20:03.068Z,6.40
2023-04-10T01:22:41.735Z,6.62
2023-04-10T01:25:28.156Z,6.48
2023-04-10T01:28:19.172Z,6.50
2023-04-10T01:30:52.306Z,6.48
2023-04-10T01:33:21.273Z,6.64
2023-04-10T01:35:52.257Z,6.41
2023-04-10T01:38:21.361Z,6.35
2023-04-10T01:40:52.319Z,6.44
2023-04-10T01:43:27.435Z,6.50
2023-04-10T01:45:55.822Z,6.49
2023-04-10T01:48:22.423Z,6.45
2023-04-10T01:50:50.339Z,6.45
2023-04-10T01:53:17.796Z,6.40
2023-04-10T01:55:44.845Z,6.27
2023-04-10T01:58:13.031Z,6.13
2023-04-10T02:00:42.792Z,6.30
2023-04-10T02:03:11.263Z,6.45
2023-04-10T02:06:02.897Z,6.43
2023-04-10T02:08:40.707Z,6.45
2023-04-10T02:11:17.755Z,6.23
2023-04-10T02:13:45.259Z,6.38
2023-04-10T02:16:17.251Z,6.33
2023-04-10T02:18:46.211Z,6.53
2023-04-10T02:21:13.217Z,6.50
2023-04-10T02:23:41.513Z,6.30
2023-04-10T02:26:11.039Z,6.45
2023-04-10T02:28:39.668Z,6.35
2023-04-10T02:31:07.213Z,6.33
2023-04-10T02:33:33.864Z,6.16
2023-04-10T02:36:01.395Z,6.30
2023-04-10T02:38:28.656Z,6.36
2023-04-10T02:40:55.811Z,6.36
2023-04-10T02:43:22.384Z,6.31
2023-04-10T02:45:49.042Z,6.40
2023-04-10T02:48:22.446Z,6.28
2023-04-10T02:51:00.277Z,6.38
2023-04-10T02:53:28.815Z,6.22
2023-04-10T02:55:58.702Z,6.34
2023-04-10T02:58:25.349Z,6.42
2023-04-10T03:00:54.852Z,6.28
2023-04-10T03:03:35.100Z,6.40
2023-04-10T03:06:01.826Z,6.39
2023-04-10T03:08:31.720Z,6.35
2023-04-10T03:10:58.341Z,6.46
2023-04-10T03:13:24.907Z,6.40
2023-04-10T03:15:51.506Z,6.53
2023-04-10T03:18:18.785Z,6.45
2023-04-10T03:20:48.933Z,6.31
2023-04-10T03:23:15.747Z,6.36
2023-04-10T03:25:43.376Z,6.23
2023-04-10T03:28:10.856Z,6.30
2023-04-10T03:30:37.614Z,6.28
2023-04-10T03:33:04.197Z,6.34
2023-04-10T03:35:31.337Z,6.44
2023-04-10T03:37:57.979Z,6.41
2023-04-10T03:40:24.534Z,6.40
2023-04-10T03:42:51.394Z,6.35
2023-04-10T03:45:18.346Z,6.35
2023-04-10T03:47:45.398Z,6.32
2023-04-10T03:50:14.999Z,6.26
2023-04-10T03:52:49.767Z,6.46
2023-04-10T03:55:20.997Z,6.20
2023-04-10T03:57:49.990Z,6.32
2023-04-10T04:00:20.000Z,6.40
2023-04-10T04:02:47.453Z,6.33
2023-04-10T04:05:21.405Z,6.34
2023-04-10T04:08:08.044Z,6.42
2023-04-10T04:10:57.248Z,6.46
2023-04-10T04:13:33.828Z,6.36
2023-04-10T04:16:16.907Z,6.54
2023-04-10T04:18:52.120Z,6.51
2023-04-10T04:21:28.498Z,6.54
2023-04-10T04:24:04.178Z,6.50
2023-04-10T04:26:49.771Z,6.52
2023-04-10T04:29:35.065Z,6.42
2023-04-10T04:32:10.573Z,6.51
2023-04-10T04:34:55.762Z,6.42
2023-04-10T04:37:42.390Z,6.50
2023-04-10T04:40:35.314Z,6.65
2023-04-10T04:43:12.569Z,6.56
2023-04-10T04:45:57.928Z,6.40
2023-04-10T04:48:47.645Z,6.49
2023-04-10T04:51:46.159Z,6.59
2023-04-10T04:54:31.050Z,6.60
2023-04-10T04:57:24.055Z,6.59
2023-04-10T05:00:22.827Z,6.53
2023-04-10T05:03:01.200Z,6.65
2023-04-10T05:05:57.118Z,6.56
2023-04-10T05:08:36.772Z,6.54
2023-04-10T05:11:29.509Z,6.61
2023-04-10T05:14:19.938Z,6.64
2023-04-10T05:17:03.375Z,6.65
2023-04-10T05:19:55.427Z,6.80
2023-04-10T05:22:42.244Z,6.91
2023-04-10T05:25:43.908Z,6.98
2023-04-10T05:28:20.641Z,7.01
2023-04-10T05:31:14.689Z,7.02
2023-04-10T05:34:04.474Z,7.11
2023-04-10T05:37:02.484Z,7.03
2023-04-10T05:39:47.633Z,7.13
2023-04-10T05:42:43.308Z,7.23
2023-04-10T05:45:30.201Z,7.35
2023-04-10T05:48:17.172Z,7.36
2023-04-10T05:51:06.690Z,7.47
2023-04-10T05:53:56.440Z,7.71
2023-04-10T05:56:45.287Z,7.82
2023-04-10T05:59:41.035Z,7.81
2023-04-10T06:02:22.934Z,8.00
2023-04-10T06:04:50.067Z,8.10
2023-04-10T06:07:17.011Z,8.18
2023-04-10T06:09:43.685Z,8.28
2023-04-10T06:12:11.079Z,8.44
2023-04-10T06:14:39.934Z,8.40
2023-04-10T06:17:07.144Z,8.43
2023-04-10T06:19:33.698Z,8.60
2023-04-10T06:22:00.531Z,8.63
2023-04-10T06:24:28.731Z,8.66
2023-04-10T06:26:57.003Z,8.66
2023-04-10T06:29:24.248Z,8.81
2023-04-10T06:31:51.127Z,8.66
2023-04-10T06:34:17.950Z,8.79
2023-04-10T06:36:55.628Z,8.87
2023-04-10T06:39:22.336Z,8.85
2023-04-10T06:41:48.889Z,8.90
2023-04-10T06:44:28.592Z,9.15
2023-04-10T06:46:55.431Z,9.14
2023-04-10T06:49:22.037Z,9.28
2023-04-10T06:51:48.736Z,9.39
2023-04-10T06:54:15.554Z,9.41
2023-04-10T06:56:42.125Z,9.50
2023-04-10T06:59:08.741Z,9.65
2023-04-10T07:01:35.744Z,9.56
2023-04-10T07:04:02.249Z,9.76
2023-04-10T07:06:29.018Z,9.81
2023-04-10T07:08:56.126Z,10.05
2023-04-10T07:11:22.757Z,10.12
2023-04-10T07:13:53.756Z,10.15
2023-04-10T07:16:20.778Z,10.40
2023-04-10T07:18:47.690Z,10.57
2023-04-10T07:21:14.361Z,10.67
2023-04-10T07:23:40.976Z,10.73
2023-04-10T07:26:07.546Z,10.89
2023-04-10T07:28:34.100Z,11.03
2023-04-10T07:31:00.804Z,11.27
2023-04-10T07:33:27.527Z,11.38
2023-04-10T07:35:54.144Z,11.49
2023-04-10T07:38:21.219Z,11.68
2023-04-10T07:40:48.236Z,11.69
2023-04-10T07:43:15.456Z,11.71
2023-04-10T07:45:42.057Z,11.78
2023-04-10T07:48:08.703Z,11.91
2023-04-10T07:50:36.164Z,12.08
2023-04-10T07:53:07.558Z,12.25
2023-04-10T07:55:38.950Z,12.29
2023-04-10T07:58:06.174Z,12.46
2023-04-10T08:00:33.843Z,12.46
2023-04-10T08:03:01.544Z,12.64
2023-04-10T08:05:28.573Z,12.73
2023-04-10T08:07:55.131Z,12.93
2023-04-10T08:10:21.642Z,13.08
2023-04-10T08:12:48.309Z,13.21
2023-04-10T08:15:14.855Z,13.29
2023-04-10T08:17:41.468Z,13.37
2023-04-10T08:20:12.142Z,13.46
2023-04-10T08:22:38.719Z,13.67
2023-04-10T08:25:05.910Z,13.66
2023-04-10T08:27:35.396Z,13.91
2023-04-10T08:30:02.385Z,13.98
2023-04-10T08:32:29.179Z,13.94
2023-04-10T08:34:55.835Z,13.93
2023-04-10T08:37:22.710Z,13.93
2023-04-10T08:39:49.299Z,14.10
2023-04-10T08:42:16.282Z,14.21
2023-04-10T08:44:46.053Z,14.31
2023-04-10T08:47:14.567Z,14.38
2023-04-10T08:49:57.037Z,14.44
2023-04-10T08:52:29.522Z,14.67
2023-04-10T08:54:58.495Z,14.73
2023-04-10T08:57:26.849Z,14.81
2023-04-10T08:59:53.502Z,15.07
2023-04-10T09:02:22.781Z,14.97
2023-04-10T09:04:53.635Z,14.91
2023-04-10T09:07:20.416Z,14.90
2023-04-10T09:09:47.207Z,15.04
2023-04-10T09:12:15.550Z,15.36
2023-04-10T09:14:42.921Z,15.28
2023-04-10T09:17:19.132Z,15.46
2023-04-10T09:19:49.840Z,15.64
2023-04-10T09:22:17.159Z,15.76
2023-04-10T09:24:45.652Z,15.91
2023-04-10T09:27:31.223Z,15.94
2023-04-10T09:30:00.203Z,15.99
2023-04-10T09:32:45.116Z,16.22
2023-04-10T09:35:14.180Z,16.21
2023-04-10T09:37:43.707Z,16.13
2023-04-10T09:40:25.152Z,16.39
2023-04-10T09:42:52.804Z,16.57
2023-04-10T09:45:20.579Z,16.68
2023-04-10T09:48:08.391Z,16.51
2023-04-10T09:50:40.823Z,16.55
2023-04-10T09:53:15.574Z,16.63
2023-04-10T09:55:43.649Z,16.54
2023-04-10T09:58:11.108Z,16.62
2023-04-10T10:00:42.858Z,16.72
2023-04-10T10:03:14.922Z,16.95
2023-04-10T10:05:43.908Z,16.99
2023-04-10T10:08:12.002Z,17.23
2023-04-10T10:10:51.405Z,17.33
2023-04-10T10:13:27.896Z,17.53
2023-04-10T10:15:58.300Z,17.69
2023-04-10T10:18:39.282Z,17.93
2023-04-10T10:21:09.222Z,17.84
2023-04-10T10:23:37.649Z,17.67
2023-04-10T10:26:08.955Z,17.69
2023-04-10T10:28:37.090Z,17.60
2023-04-10T10:31:04.264Z,17.51
2023-04-10T10:33:32.133Z,17.77
2023-04-10T10:36:00.647Z,17.69
2023-04-10T10:38:28.211Z,17.74
2023-04-10T10:41:02.270Z,17.77
2023-04-10T10:43:56.116Z,17.89
2023-04-10T10:46:35.757Z,17.87
2023-04-10T10:49:02.436Z,17.87
2023-04-10T10:51:49.027Z,17.88
2023-04-10T10:54:28.250Z,17.93
2023-04-10T10:56:55.129Z,18.09
2023-04-10T10:59:54.299Z,18.45
2023-04-10T11:02:20.912Z,18.36
2023-04-10T11:04:51.399Z,18.07
2023-04-10T11:07:19.114Z,18.37
2023-04-10T11:09:57.080Z,18.40
2023-04-10T11:12:24.990Z,18.29
2023-04-10T11:15:06.631Z,18.15
2023-04-10T11:17:54.344Z,18.17
2023-04-10T11:20:28.710Z,18.59
2023-04-10T11:23:12.593Z,18.38
2023-04-10T11:25:57.432Z,18.37
2023-04-10T11:28:33.225Z,18.58
2023-04-10T11:31:16.355Z,18.47
2023-04-10T11:33:42.911Z,18.43
2023-04-10T11:36:09.893Z,18.26
2023-04-10T11:38:37.276Z,18.53
2023-04-10T11:41:06.622Z,18.44
2023-04-10T11:43:34.963Z,18.25
2023-04-10T11:46:04.565Z,18.33
2023-04-10T11:48:32.213Z,18.17
2023-04-10T11:51:01.621Z,18.84
2023-04-10T11:53:29.947Z,18.94
2023-04-10T11:55:56.878Z,18.77
2023-04-10T11:58:30.438Z,18.68
2023-04-10T12:01:05.006Z,18.90
2023-04-10T12:03:37.340Z,18.92
2023-04-10T12:06:10.074Z,19.03
2023-04-10T12:08:39.525Z,18.68
2023-04-10T12:11:06.427Z,18.98
2023-04-10T12:13:33.503Z,19.00
2023-04-10T12:16:02.504Z,19.23
2023-04-10T12:18:30.699Z,19.11
2023-04-10T12:20:59.448Z,19.30
2023-04-10T12:23:28.611Z,19.56
2023-04-10T12:26:08.511Z,19.58
2023-04-10T12:28:36.551Z,19.75
2023-04-10T12:31:03.648Z,19.45
2023-04-10T12:33:30.389Z,19.49
2023-04-10T12:35:56.992Z,19.59
2023-04-10T12:38:41.391Z,19.47
2023-04-10T12:41:11.801Z,19.76
2023-04-10T12:43:42.840Z,19.62
2023-04-10T12:46:10.876Z,19.55
2023-04-10T12:48:37.743Z,19.31
2023-04-10T12:51:04.974Z,19.53
2023-04-10T12:53:33.041Z,19.92
2023-04-10T12:56:08.752Z,19.83
2023-04-10T12:58:35.575Z,20.09
2023-04-10T13:01:07.204Z,19.82
2023-04-10T13:03:34.670Z,19.83
2023-04-10T13:06:01.838Z,19.70
2023-04-10T13:08:28.517Z,19.83
2023-04-10T13:10:55.233Z,19.68
2023-04-10T13:13:21.784Z,19.66
2023-04-10T13:15:49.464Z,20.07
2023-04-10T13:18:16.204Z,20.02
2023-04-10T13:20:42.808Z,20.21
2023-04-10T13:23:09.449Z,20.21
2023-04-10T13:25:40.826Z,20.69
2023-04-10T13:28:11.027Z,20.75
2023-04-10T13:30:40.315Z,20.19
2023-04-10T13:33:07.983Z,20.17
2023-04-10T13:35:34.657Z,20.39
2023-04-10T13:38:02.089Z,20.45
2023-04-10T13:40:31.567Z,20.55
2023-04-10T13:42:59.912Z,20.75
2023-04-10T13:45:34.818Z,20.56
2023-04-10T13:48:10.398Z,20.62
2023-04-10T13:50:45.045Z,20.40
2023-04-10T13:53:11.839Z,20.15
2023-04-10T13:55:40.359Z,20.20
2023-04-10T13:58:07.065Z,20.59
2023-04-10T14:00:38.647Z,20.70
2023-04-10T14:03:14.758Z,20.96
2023-04-10T14:05:41.422Z,21.44
2023-04-10T14:08:11.826Z,21.73
2023-04-10T14:10:39.594Z,21.82
2023-04-10T14:13:06.986Z,22.22
2023-04-10T14:15:37.214Z,22.23
2023-04-10T14:18:05.653Z,21.66
2023-04-10T14:20:32.211Z,21.78
2023-04-10T14:22:58.901Z,21.98
2023-04-10T14:25:25.575Z,21.81
2023-04-10T14:27:52.165Z,21.98
2023-04-10T14:30:18.796Z,21.64
2023-04-10T14:32:45.577Z,21.74
2023-04-10T14:35:14.698Z,21.49
2023-04-10T14:37:41.245Z,21.29
2023-04-10T14:40:09.803Z,20.96
2023-04-10T14:42:36.506Z,20.92
2023-04-10T14:45:03.242Z,20.23
2023-04-10T14:47:29.868Z,20.35
2023-04-10T14:49:56.513Z,20.30
2023-04-10T14:52:23.394Z,20.03
2023-04-10T14:54:50.180Z,19.68
2023-04-10T14:57:17.272Z,19.62
2023-04-10T14:59:44.082Z,19.34
2023-04-10T15:02:10.787Z,19.35
2023-04-10T15:04:37.746Z,19.19
2023-04-10T15:07:04.732Z,19.42
2023-04-10T15:09:32.521Z,19.26
2023-04-10T15:11:59.086Z,19.18
2023-04-10T15:14:26.029Z,18.93
2023-04-10T15:16:54.089Z,18.88
2023-04-10T15:19:20.868Z,18.99
2023-04-10T15:21:47.463Z,18.80
2023-04-10T15:24:14.039Z,18.84
2023-04-10T15:26:45.628Z,19.02
2023-04-10T15:29:13.261Z,18.83
2023-04-10T15:31:40.441Z,18.75
2023-04-10T15:34:07.374Z,18.77
2023-04-10T15:36:33.932Z,18.75
2023-04-10T15:39:02.744Z,18.66
2023-04-10T15:41:31.690Z,18.76
2023-04-10T15:43:58.730Z,18.66
2023-04-10T15:46:26.072Z,18.61
2023-04-10T15:48:52.749Z,18.69
2023-04-10T15:51:19.331Z,18.85
2023-04-10T15:53:45.968Z,18.82
2023-04-10T15:56:12.568Z,18.61
2023-04-10T15:58:39.123Z,18.53
2023-04-10T16:01:06.273Z,18.40
2023-04-10T16:03:33.051Z,18.53
2023-04-10T16:05:59.708Z,18.23
2023-04-10T16:08:27.361Z,18.32
2023-04-10T16:10:54.165Z,18.19
2023-04-10T16:13:20.861Z,18.21
2023-04-10T16:15:47.572Z,18.30
2023-04-10T16:18:14.148Z,18.22
2023-04-10T16:20:43.955Z,18.30
2023-04-10T16:23:10.664Z,18.40
2023-04-10T16:25:37.308Z,18.20
2023-04-10T16:28:06.481Z,18.15
2023-04-10T16:30:33.860Z,18.29
2023-04-10T16:33:01.864Z,18.19
2023-04-10T16:35:28.563Z,17.97
2023-04-10T16:37:55.095Z,18.16
2023-04-10T16:40:22.246Z,18.04
2023-04-10T16:42:48.804Z,17.88
2023-04-10T16:45:15.924Z,17.75
2023-04-10T16:47:44.586Z,17.82
2023-04-10T16:50:11.538Z,18.03
2023-04-10T16:52:38.272Z,18.04
2023-04-10T16:55:05.308Z,17.92
2023-04-10T16:57:33.062Z,17.75
2023-04-10T16:59:59.771Z,17.75
2023-04-10T17:02:26.830Z,17.67
2023-04-10T17:04:56.937Z,17.91
2023-04-10T17:07:23.932Z,17.74
2023-04-10T17:09:51.592Z,17.60
2023-04-10T17:12:18.415Z,17.60
2023-04-10T17:14:45.440Z,17.57
2023-04-10T17:17:12.013Z,17.62
2023-04-10T17:19:38.659Z,17.73
2023-04-10T17:22:06.833Z,17.52
2023-04-10T17:24:33.891Z,17.47
2023-04-10T17:27:04.979Z,17.41
2023-04-10T17:29:36.092Z,17.31
2023-04-10T17:32:02.824Z,17.42
2023-04-10T17:34:33.499Z,17.24
2023-04-10T17:37:00.757Z,17.18
2023-04-10T17:39:27.681Z,17.19
2023-04-10T17:41:54.414Z,17.23
2023-04-10T17:44:21.028Z,17.26
2023-04-10T17:46:47.575Z,17.10
2023-04-10T17:49:14.437Z,17.00
2023-04-10T17:51:41.824Z,17.09
2023-04-10T17:54:08.578Z,16.77
2023-04-10T17:56:35.208Z,16.97
2023-04-10T17:59:02.815Z,17.06
2023-04-10T18:01:30.913Z,17.04
2023-04-10T18:03:59.177Z,17.10
2023-04-10T18:06:27.493Z,17.03
2023-04-10T18:08:55.861Z,16.81
2023-04-10T18:11:23.859Z,16.91
2023-04-10T18:13:50.470Z,16.92
2023-04-10T18:16:20.387Z,16.77
2023-04-10T18:18:47.017Z,16.81
2023-04-10T18:21:13.736Z,16.83
2023-04-10T18:23:40.720Z,16.79
2023-04-10T18:26:07.750Z,16.77
2023-04-10T18:28:36.826Z,16.84
2023-04-10T18:31:03.651Z,16.72
2023-04-10T18:33:30.612Z,16.71
2023-04-10T18:35:58.648Z,16.74
2023-04-10T18:38:26.568Z,16.61
2023-04-10T18:40:57.037Z,16.73
2023-04-10T18:43:27.575Z,16.81
2023-04-10T18:45:54.936Z,16.72
2023-04-10T18:48:22.208Z,16.65
2023-04-10T18:50:53.326Z,16.54
2023-04-10T18:53:21.049Z,16.38
2023-04-10T18:55:54.700Z,15.88
2023-04-10T18:58:22.082Z,15.68
2023-04-10T19:00:49.282Z,15.23
2023-04-10T19:03:16.398Z,15.14
2023-04-10T19:05:43.633Z,14.98
2023-04-10T19:08:14.941Z,14.87
2023-04-10T19:10:42.554Z,14.64
2023-04-10T19:13:12.854Z,14.32
2023-04-10T19:15:45.865Z,14.39
2023-04-10T19:18:14.070Z,13.98
2023-04-10T19:20:49.892Z,13.71
2023-04-10T19:23:20.424Z,13.77
2023-04-10T19:25:50.981Z,13.92
2023-04-10T19:28:17.533Z,13.74
2023-04-10T19:30:45.924Z,13.56
2023-04-10T19:33:14.295Z,13.29
2023-04-10T19:35:44.189Z,13.29
2023-04-10T19:38:11.046Z,13.39
2023-04-10T19:40:37.727Z,13.47
2023-04-10T19:43:04.297Z,13.48
2023-04-10T19:45:32.434Z,13.25
2023-04-10T19:47:59.415Z,13.39
2023-04-10T19:50:30.895Z,13.48
2023-04-10T19:52:58.054Z,13.54
2023-04-10T19:55:25.311Z,13.45
2023-04-10T19:57:51.910Z,13.22
2023-04-10T20:00:19.659Z,13.18
2023-04-10T20:02:46.709Z,13.17
2023-04-10T20:05:13.530Z,13.12
2023-04-10T20:07:40.213Z,12.96
2023-04-10T20:10:09.071Z,12.95
2023-04-10T20:12:35.829Z,12.96
2023-04-10T20:15:03.908Z,13.03
2023-04-10T20:17:30.902Z,13.06
2023-04-10T20:19:57.786Z,13.07
2023-04-10T20:22:25.343Z,12.95
2023-04-10T20:24:51.994Z,12.97
2023-04-10T20:27:18.708Z,13.09
2023-04-10T20:29:45.333Z,12.76
2023-04-10T20:32:11.887Z,12.96
2023-04-10T20:34:38.548Z,12.92
2023-04-10T20:37:08.016Z,12.82
2023-04-10T20:39:34.621Z,12.76
2023-04-10T20:42:01.830Z,12.75
2023-04-10T20:44:28.374Z,12.76
2023-04-10T20:46:55.156Z,12.83
2023-04-10T20:49:22.629Z,12.80
2023-04-10T20:51:49.246Z,12.78
2023-04-10T20:54:18.813Z,12.68
2023-04-10T20:56:45.300Z,12.29
2023-04-10T20:59:18.596Z,12.35
2023-04-10T21:01:45.287Z,12.03
2023-04-10T21:04:12.206Z,11.95
2023-04-10T21:06:38.852Z,12.02
2023-04-10T21:09:06.042Z,11.92
2023-04-10T21:11:32.663Z,11.58
2023-04-10T21:13:59.266Z,11.79
2023-04-10T21:16:25.992Z,11.83
2023-04-10T21:18:53.669Z,11.96
2023-04-10T21:21:20.624Z,12.10
2023-04-10T21:23:47.246Z,11.97
2023-04-10T21:26:13.913Z,11.98
2023-04-10T21:28:40.594Z,12.00
2023-04-10T21:31:07.214Z,11.88
2023-04-10T21:33:33.876Z,12.02
2023-04-10T21:36:00.959Z,11.98
2023-04-10T21:38:28.031Z,12.11
2023-04-10T21:40:55.063Z,12.15
2023-04-10T21:43:21.925Z,11.67
2023-04-10T21:45:48.691Z,11.94
2023-04-10T21:48:15.451Z,12.04
2023-04-10T21:50:42.313Z,12.07
2023-04-10T21:53:09.145Z,11.88
2023-04-10T21:55:35.733Z,11.74
2023-04-10T21:58:02.362Z,11.71
2023-04-10T22:00:29.022Z,11.67
2023-04-10T22:02:55.767Z,11.77
2023-04-10T22:05:24.305Z,11.71
2023-04-10T22:07:52.120Z,11.65
2023-04-10T22:10:18.921Z,11.52
2023-04-10T22:12:48.414Z,11.69
2023-04-10T22:15:18.481Z,11.61
2023-04-10T22:17:46.253Z,11.45
2023-04-10T22:20:12.899Z,11.53
2023-04-10T22:22:39.556Z,11.39
2023-04-10T22:25:08.385Z,11.49
2023-04-10T22:27:35.155Z,11.47
2023-04-10T22:30:03.696Z,11.42
2023-04-10T22:32:31.605Z,11.54
2023-04-10T22:34:59.612Z,11.44
2023-04-10T22:37:26.822Z,11.24
2023-04-10T22:39:54.643Z,11.07
2023-04-10T22:42:21.487Z,10.99
2023-04-10T22:44:48.015Z,11.19
2023-04-10T22:47:14.662Z,11.12
2023-04-10T22:49:41.252Z,11.09
2023-04-10T22:52:07.825Z,11.14
2023-04-10T22:54:34.440Z,10.88
2023-04-10T22:57:01.019Z,10.98
2023-04-10T22:59:27.667Z,11.14
2023-04-10T23:01:54.352Z,11.05
2023-04-10T23:04:21.405Z,11.04
2023-04-10T23:06:48.083Z,10.80
2023-04-10T23:09:14.607Z,10.85
2023-04-10T23:11:41.149Z,11.13
2023-04-10T23:14:07.822Z,10.94
2023-04-10T23:16:34.496Z,10.96
2023-04-10T23:19:01.091Z,11.11
2023-04-10T23:21:27.722Z,11.02
2023-04-10T23:23:54.246Z,11.08
2023-04-10T23:26:21.076Z,11.06
2023-04-10T23:28:48.163Z,10.97
2023-04-10T23:31:15.716Z,10.92
2023-04-10T23:33:42.258Z,11.03
2023-04-10T23:36:14.966Z,11.09
2023-04-10T23:38:41.815Z,10.96
2023-04-10T23:41:08.482Z,10.85
2023-04-10T23:43:35.111Z,10.77
2023-04-10T23:46:01.722Z,10.80
2023-04-10T23:48:28.303Z,10.71
2023-04-10T23:51:06.523Z,10.68
2023-04-10T23:53:33.219Z,10.91
2023-04-10T23:56:00.146Z,10.85
2023-04-10T23:58:26.907Z,10.73
